Observation data for McLean on 02/14/2017      Previous  Date  Next       Current Mesonet Observations  Soil Data  Daily Summary Page  Observations in Plain Language
KMCS 140600Z 03009G15KT 01/01 A3001 RMK A01 T00140012  RH  100%=      5-min Rain = 0
KMCS 140605Z 03002KT 02/01 A3003 RMK A01 T00150013  RH  100%=      5-min Rain = 0
KMCS 140610Z 25002KT 02/01 A3005 RMK A01 T00160014  RH  100%=      5-min Rain = 0
KMCS 140615Z 30001KT 02/01 A3006 RMK A01 T00160014  RH  100%=      5-min Rain = 0
KMCS 140620Z 33002KT 02/01 A3006 RMK A01 T00160014  RH  100%=      5-min Rain = 0
KMCS 140625Z 32002KT 02/02 A3006 RMK A01 T00170015  RH  100%=      5-min Rain = 0
KMCS 140630Z 30002KT 02/02 A3007 RMK A01 T00160015  RH  100%=      5-min Rain = 0
KMCS 140635Z 33004KT 02/02 A3006 RMK A01 T00170015  RH  100%=      5-min Rain = 0
KMCS 140640Z 34005KT 02/02 A3005 RMK A01 T00170015  RH  100%=      5-min Rain = 0
KMCS 140645Z 33004KT 02/02 A3006 RMK A01 T00170015  RH  100%=      5-min Rain = 0
KMCS 140650Z 32005KT 02/02 A3006 RMK A01 T00170015  RH  100%=      5-min Rain = 0
KMCS 140655Z 34005KT 02/02 A3005 RMK A01 T00170016  RH  100%=      5-min Rain = 0
KMCS 140700Z 35006KT 02/02 A3004 RMK A01 T00170016  RH  100%=      5-min Rain = 0
KMCS 140705Z 00007KT 02/02 A3003 RMK A01 T00170015  RH  100%=      5-min Rain = 0
KMCS 140710Z 35008KT 02/02 A3003 RMK A01 T00170015  RH  100%=      5-min Rain = 0
KMCS 140715Z 35009KT 02/02 A3003 RMK A01 T00170015  RH  100%=      5-min Rain = 0
KMCS 140720Z 35008KT 02/02 A3003 RMK A01 T00170015  RH  100%=      5-min Rain = 0
KMCS 140725Z 35008KT 02/02 A3003 RMK A01 T00170016  RH  100%=      5-min Rain = 0
KMCS 140730Z 35009KT 02/02 A3002 RMK A01 T00170015  RH  100%=      5-min Rain = 0
KMCS 140735Z 35008KT 02/02 A3002 RMK A01 T00170016  RH  100%=      5-min Rain = 0
KMCS 140740Z 35007KT 02/02 A3003 RMK A01 T00180016  RH  100%=      5-min Rain = 0
KMCS 140745Z 34008KT 02/02 A3003 RMK A01 T00180016  RH  100%=      5-min Rain = 0
KMCS 140750Z 34007KT 02/02 A3003 RMK A01 T00190017  RH  100%=      5-min Rain = 0
KMCS 140755Z 34008KT 02/02 A3004 RMK A01 T00190017  RH  100%=      5-min Rain = 0
KMCS 140800Z 34006KT 02/02 A3004 RMK A01 T00190018  RH  100%=      5-min Rain = 0
KMCS 140805Z 35007KT 02/02 A3004 RMK A01 T00190018  RH  100%=      5-min Rain = 0
KMCS 140810Z 35008KT 02/02 A3003 RMK A01 T00190018  RH  100%=      5-min Rain = 0
KMCS 140815Z 36008KT 02/02 A3003 RMK A01 T00190018  RH  100%=      5-min Rain = 0
KMCS 140820Z 00008KT 02/02 A3002 RMK A01 T00190017  RH  100%=      5-min Rain = 0
KMCS 140825Z 35008KT 02/02 A3002 RMK A01 T00190018  RH  100%=      5-min Rain = 0
KMCS 140830Z 35007KT 02/02 A3003 RMK A01 T00190018  RH  100%=      5-min Rain = 0
KMCS 140835Z 35007KT 02/02 A3002 RMK A01 T00190018  RH  100%=      5-min Rain = 0
KMCS 140840Z 35008KT 02/02 A3002 RMK A01 T00190017  RH  100%=      5-min Rain = 0
KMCS 140845Z 35009KT 02/02 A3002 RMK A01 T00190017  RH  100%=      5-min Rain = 0
KMCS 140850Z 35010KT 02/02 A3002 RMK A01 T00180017  RH  100%=      5-min Rain = 0
KMCS 140855Z 34012KT 02/02 A3002 RMK A01 T00170016  RH  100%=      5-min Rain = 0
KMCS 140900Z 34012G17KT 02/01 A3002 RMK A01 T00160014  RH  100%=      5-min Rain = 0
KMCS 140905Z 35014KT 02/01 A3001 RMK A01 T00150013  RH  100%=      5-min Rain = 0
KMCS 140910Z 35012KT 01/01 A3001 RMK A01 T00140013  RH  100%=      5-min Rain = 0
KMCS 140915Z 35011KT 01/01 A3001 RMK A01 T00140012  RH  100%=      5-min Rain = 0
KMCS 140920Z 35011KT 01/01 A3001 RMK A01 T00130012  RH  100%=      5-min Rain = 0
KMCS 140925Z 35011KT 01/01 A3001 RMK A01 T00130012  RH  100%=      5-min Rain = 0
KMCS 140930Z 35013KT 01/01 A3001 RMK A01 T00130012  RH  100%=      5-min Rain = 0
KMCS 140935Z 35012KT 01/01 A30 RMK A01 T00130012  RH  100%=      5-min Rain = 0
KMCS 140940Z 35011KT 01/01 A2999 RMK A01 T00130012  RH  100%=      5-min Rain = 0
KMCS 140945Z 36011G17KT 01/01 A2999 RMK A01 T00130011  RH  100%=      5-min Rain = 0
KMCS 140950Z 36010KT 01/01 A2999 RMK A01 T00130012  RH  100%=      5-min Rain = 0
KMCS 140955Z 36011KT 01/01 A30 RMK A01 T00130012  RH  100%=      5-min Rain = 0
KMCS 141000Z 36011KT 01/01 A30 RMK A01 T00140012  RH  100%=      5-min Rain = 0
KMCS 141005Z 35011KT 01/01 A30 RMK A01 T00140012  RH  100%=      5-min Rain = 0.01
KMCS 141010Z 00009G15KT 01/01 A3001 RMK A01 T00140012  RH  100%=      5-min Rain = 0
KMCS 141015Z 00008KT 01/01 A3002 RMK A01 T00140012  RH  100%=      5-min Rain = 0
KMCS 141020Z 00009KT 01/01 A3001 RMK A01 T00140012  RH  100%=      5-min Rain = 0
KMCS 141025Z 36010G15KT 01/01 A3001 RMK A01 T00140012  RH  100%=      5-min Rain = 0
KMCS 141030Z 35008KT 01/01 A3002 RMK A01 T00140012  RH  100%=      5-min Rain = 0
KMCS 141035Z 35010KT 01/01 A3002 RMK A01 T00140013  RH  100%=      5-min Rain = 0
KMCS 141040Z 35010KT 01/01 A3001 RMK A01 T00140012  RH  100%=      5-min Rain = 0
KMCS 141045Z 35011KT 01/01 A3001 RMK A01 T00140012  RH  100%=      5-min Rain = 0
KMCS 141050Z 34011KT 01/01 A3001 RMK A01 T00140012  RH  100%=      5-min Rain = 0
KMCS 141055Z 34011KT 01/01 A3001 RMK A01 T00130012  RH  100%=      5-min Rain = 0
KMCS 141100Z 35011KT 01/01 A3001 RMK A01 T00130012  RH  100%=      5-min Rain = 0
KMCS 141105Z 35009KT 01/01 A3002 RMK A01 T00140012  RH  100%=      5-min Rain = 0
KMCS 141110Z 34010G16KT 01/01 A3002 RMK A01 T00140012  RH  100%=      5-min Rain = 0
KMCS 141115Z 35012KT 01/01 A3002 RMK A01 T00130012  RH  100%=      5-min Rain = 0.01
KMCS 141120Z 35012KT 01/01 A3001 RMK A01 T00130011  RH  100%=      5-min Rain = 0
KMCS 141125Z 34011KT 01/01 A3002 RMK A01 T00120011  RH  100%=      5-min Rain = 0
KMCS 141130Z 34011KT 01/01 A3001 RMK A01 T00120010  RH  100%=      5-min Rain = 0
KMCS 141135Z 34011KT 01/01 A3001 RMK A01 T00120010  RH  100%=      5-min Rain = 0
KMCS 141140Z 34011KT 01/01 A3001 RMK A01 T00120010  RH  100%=      5-min Rain = 0
KMCS 141145Z 34012KT 01/01 A30 RMK A01 T00110009  RH  100%=      5-min Rain = 0
KMCS 141150Z 34013KT 01/01 A30 RMK A01 T00100009  RH  100%=      5-min Rain = 0
KMCS 141155Z 35012KT 01/01 A30 RMK A01 T00100008  RH  100%=      5-min Rain = 0
KMCS 141200Z 35011KT 01/01 A3001 RMK A01 T00100008  RH  100%=      5-min Rain = 0
KMCS 141205Z 35011KT 01/01 A3001 RMK A01 T00100008  RH  100%=      5-min Rain = 0
KMCS 141210Z 35011KT 01/01 A3001 RMK A01 T00100009  RH  100%=      5-min Rain = 0
KMCS 141215Z 35011KT 01/01 A3001 RMK A01 T00100009  RH  100%=      5-min Rain = 0
KMCS 141220Z 35011KT 01/01 A3001 RMK A01 T00100009  RH  100%=      5-min Rain = 0
KMCS 141225Z 35011KT 01/01 A3001 RMK A01 T00100009  RH  100%=      5-min Rain = 0
KMCS 141230Z 35011KT 01/01 A3001 RMK A01 T00100009  RH  100%=      5-min Rain = 0
KMCS 141235Z 34011KT 01/01 A3001 RMK A01 T00100008  RH  100%=      5-min Rain = 0
KMCS 141240Z 34011KT 01/01 A3001 RMK A01 T00090007  RH  100%=      5-min Rain = 0
KMCS 141245Z 35011KT 01/01 A3001 RMK A01 T00080006  RH  100%=      5-min Rain = 0
KMCS 141250Z 35011KT 01/01 A3001 RMK A01 T00070005  RH  100%=      5-min Rain = 0
KMCS 141255Z 35012KT 01/00 A3002 RMK A01 T00050004  RH  100%=      5-min Rain = 0
KMCS 141300Z 34012KT 00/00 A3002 RMK A01 T00040002  RH  100%=      5-min Rain = 0
KMCS 141305Z 34012KT 00/00 A3002 RMK A01 T00030001  RH  100%=      5-min Rain = 0
KMCS 141310Z 34013G18KT 00/00 A3001 RMK A01 T00020001  RH  100%=      5-min Rain = 0
KMCS 141315Z 34013G19KT 00/00 A3002 RMK A01 T00020001  RH  100%=      5-min Rain = 0
KMCS 141320Z 35013KT 00/00 A3002 RMK A01 T00020001  RH  100%=      5-min Rain = 0
KMCS 141325Z 35015KT 00/00 A3002 RMK A01 T00020001  RH  100%=      5-min Rain = 0
KMCS 141330Z 34015G20KT 00/00 A3002 RMK A01 T00020001  RH  100%=      5-min Rain = 0
KMCS 141335Z 35015G21KT 00/00 A3003 RMK A01 T00020000  RH  100%=      5-min Rain = 0
KMCS 141340Z 35016KT 00/00 A3003 RMK A01 T00020000  RH  100%=      5-min Rain = 0
KMCS 141345Z 35014KT 00/00 A3003 RMK A01 T000100-0  RH  100%=      5-min Rain = 0
KMCS 141350Z 35015KT 00/00 A3003 RMK A01 T000100-0  RH  100%=      5-min Rain = 0
KMCS 141355Z 35014KT 00/00 A3003 RMK A01 T000100-0  RH  100%=      5-min Rain = 0
KMCS 141400Z 35014KT 00/00 A3004 RMK A01 T000100-0  RH  100%=      5-min Rain = 0
KMCS 141405Z 35014KT 00/00 A3004 RMK A01 T000100-0  RH  100%=      5-min Rain = 0
KMCS 141410Z 35013KT 00/00 A3004 RMK A01 T000100-0  RH  100%=      5-min Rain = 0
KMCS 141415Z 35012KT 00/M00 A3004 RMK A01 T00011001  RH  100%=      5-min Rain = 0
KMCS 141420Z 35011KT 00/M00 A3004 RMK A01 T00011001  RH  100%=      5-min Rain = 0
KMCS 141425Z 36010G15KT 00/M00 A3005 RMK A01 T00011001  RH  100%=      5-min Rain = 0
KMCS 141430Z 36010KT 00/M00 A3005 RMK A01 T00011001  RH  100%=      5-min Rain = 0
KMCS 141435Z 36010KT 00/M00 A3005 RMK A01 T00011001  RH  100%=      5-min Rain = 0
KMCS 141440Z 36011KT 00/M00 A3005 RMK A01 T00011001  RH  100%=      5-min Rain = 0
KMCS 141445Z 36011KT 00/M00 A3005 RMK A01 T00011001  RH  100%=      5-min Rain = 0
KMCS 141450Z 36011KT 00/M00 A3005 RMK A01 T00011001  RH  100%=      5-min Rain = 0
KMCS 141455Z 36011KT 00/M00 A3005 RMK A01 T00011001  RH  100%=      5-min Rain = 0
KMCS 141500Z 36013KT 00/00 A3005 RMK A01 T000100-0  RH  100%=      5-min Rain = 0
KMCS 141505Z 36012KT 00/00 A3006 RMK A01 T000100-0  RH  100%=      5-min Rain = 0
KMCS 141510Z 35012KT 00/00 A3006 RMK A01 T000100-0  RH  100%=      5-min Rain = 0
KMCS 141515Z 35011KT 00/00 A3006 RMK A01 T000100-0  RH  100%=      5-min Rain = 0
KMCS 141520Z 35010KT 00/00 A3006 RMK A01 T000100-0  RH  100%=      5-min Rain = 0
KMCS 141525Z 35011KT 00/00 A3007 RMK A01 T000100-0  RH  100%=      5-min Rain = 0.01
KMCS 141530Z 35011G16KT 00/00 A3007 RMK A01 T000100-0  RH  100%=      5-min Rain = 0
KMCS 141535Z 35010KT 00/00 A3007 RMK A01 T00020000  RH  100%=      5-min Rain = 0
KMCS 141540Z 35011KT 00/00 A3007 RMK A01 T00020001  RH  100%=      5-min Rain = 0
KMCS 141545Z 35010KT 00/00 A3007 RMK A01 T00020001  RH  100%=      5-min Rain = 0
KMCS 141550Z 35009KT 00/00 A3007 RMK A01 T00030001  RH  100%=      5-min Rain = 0
KMCS 141555Z 35010KT 00/00 A3007 RMK A01 T00030001  RH  100%=      5-min Rain = 0
KMCS 141600Z 35011KT 00/00 A3007 RMK A01 T00030002  RH  100%=      5-min Rain = 0
KMCS 141605Z 35011KT 00/00 A3007 RMK A01 T00040002  RH  100%=      5-min Rain = 0
KMCS 141610Z 35012KT 00/00 A3007 RMK A01 T00030002  RH  100%=      5-min Rain = 0
KMCS 141615Z 34012KT 00/00 A3007 RMK A01 T00040002  RH  100%=      5-min Rain = 0
KMCS 141620Z 34013KT 00/00 A3007 RMK A01 T00030002  RH  100%=      5-min Rain = 0
KMCS 141625Z 34014KT 00/00 A3007 RMK A01 T00040002  RH  100%=      5-min Rain = 0
KMCS 141630Z 34015KT 00/00 A3007 RMK A01 T00030002  RH  100%=      5-min Rain = 0
KMCS 141635Z 34014KT 00/00 A3007 RMK A01 T00040002  RH  100%=      5-min Rain = 0
KMCS 141640Z 34015KT 00/00 A3007 RMK A01 T00040002  RH  100%=      5-min Rain = 0
KMCS 141645Z 34015KT 00/00 A3007 RMK A01 T00040002  RH  100%=      5-min Rain = 0
KMCS 141650Z 34015G20KT 00/00 A3007 RMK A01 T00040002  RH  100%=      5-min Rain = 0
KMCS 141655Z 34016KT 00/00 A3007 RMK A01 T00040002  RH  100%=      5-min Rain = 0
KMCS 141700Z 34016KT 00/00 A3007 RMK A01 T00040002  RH  100%=      5-min Rain = 0
KMCS 141705Z 34016KT 00/00 A3007 RMK A01 T00040003  RH  100%=      5-min Rain = 0
KMCS 141710Z 34016KT 00/00 A3007 RMK A01 T00030001  RH  100%=      5-min Rain = 0
KMCS 141715Z 34017G22KT 00/00 A3007 RMK A01 T00020001  RH  100%=      5-min Rain = 0
KMCS 141720Z 34018G23KT 00/00 A3008 RMK A01 T00020001  RH  100%=      5-min Rain = 0
KMCS 141725Z 34019G24KT 00/00 A3008 RMK A01 T00020001  RH  100%=      5-min Rain = 0
KMCS 141730Z 34018G24KT 00/00 A3008 RMK A01 T00020000  RH  100%=      5-min Rain = 0
KMCS 141735Z 34020G27KT 00/00 A3008 RMK A01 T00020000  RH  100%=      5-min Rain = 0
KMCS 141740Z 34019G25KT 00/00 A3008 RMK A01 T00020000  RH  100%=      5-min Rain = 0
KMCS 141745Z 34018G24KT 00/00 A3008 RMK A01 T000100-0  RH  100%=      5-min Rain = 0
KMCS 141750Z 34017KT 00/00 A3008 RMK A01 T000100-0  RH  100%=      5-min Rain = 0
KMCS 141755Z 34018G24KT 00/00 A3008 RMK A01 T000100-0  RH  100%=      5-min Rain = 0
KMCS 141800Z 34019G24KT 00/M00 A3008 RMK A01 T00011001  RH  100%=      5-min Rain = 0
KMCS 141805Z 34018KT 00/M00 A3009 RMK A01 T00011001  RH  100%=      5-min Rain = 0
KMCS 141810Z 34015G21KT 00/M00 A3009 RMK A01 T00011001  RH  100%=      5-min Rain = 0
KMCS 141815Z 33015KT 00/00 A3009 RMK A01 T000100-0  RH  100%=      5-min Rain = 0
KMCS 141820Z 33015G21KT 00/00 A3009 RMK A01 T000100-0  RH  100%=      5-min Rain = 0
KMCS 141825Z 34016G21KT 00/00 A3009 RMK A01 T000100-0  RH  100%=      5-min Rain = 0
KMCS 141830Z 34015KT 00/00 A3009 RMK A01 T000100-0  RH  100%=      5-min Rain = 0
KMCS 141835Z 34014G20KT 00/00 A3009 RMK A01 T000100-0  RH  100%=      5-min Rain = 0.01
KMCS 141840Z 34016KT 00/00 A3009 RMK A01 T000100-0  RH  100%=      5-min Rain = 0.01
KMCS 141845Z 34015G20KT 00/00 A3009 RMK A01 T00020000  RH  100%=      5-min Rain = 0
KMCS 141850Z 34016G21KT 00/00 A3009 RMK A01 T00020000  RH  100%=      5-min Rain = 0.01
KMCS 141855Z 34016KT 00/00 A3009 RMK A01 T00020000  RH  100%=      5-min Rain = 0.01
KMCS 141900Z 33015KT 00/00 A3009 RMK A01 T00020001  RH  100%=      5-min Rain = 0.01
KMCS 141905Z 33014KT 00/00 A3009 RMK A01 T00020001  RH  100%=      5-min Rain = 0.01
KMCS 141910Z 33016G23KT 00/00 A3008 RMK A01 T00020001  RH  100%=      5-min Rain = 0.01
KMCS 141915Z 34015KT 00/00 A3008 RMK A01 T00030001  RH  100%=      5-min Rain = 0.01
KMCS 141920Z 34015KT 00/00 A3008 RMK A01 T00030001  RH  100%=      5-min Rain = 0.01
KMCS 141925Z 34015G20KT 00/00 A3008 RMK A01 T00030001  RH  100%=      5-min Rain = 0.01
KMCS 141930Z 33016KT 00/00 A3008 RMK A01 T00030002  RH  100%=      5-min Rain = 0.01
KMCS 141935Z 33015KT 00/00 A3008 RMK A01 T00030002  RH  100%=      5-min Rain = 0.01
KMCS 141940Z 34016KT 00/00 A3008 RMK A01 T00030002  RH  100%=      5-min Rain = 0.01
KMCS 141945Z 34017KT 00/00 A3008 RMK A01 T00030001  RH  100%=      5-min Rain = 0.01
KMCS 141950Z 34014G19KT 00/00 A3008 RMK A01 T00030001  RH  100%=      5-min Rain = 0.01
KMCS 141955Z 34013KT 00/00 A3008 RMK A01 T00030001  RH  100%=      5-min Rain = 0.01
KMCS 142000Z 34011KT 00/00 A3008 RMK A01 T00040002  RH  100%=      5-min Rain = 0.02
KMCS 142005Z 34010KT 00/00 A3007 RMK A01 T00040002  RH  100%=      5-min Rain = 0.01
KMCS 142010Z 34009KT 00/00 A3007 RMK A01 T00040003  RH  100%=      5-min Rain = 0.01
KMCS 142015Z 33009KT 01/00 A3007 RMK A01 T00050003  RH  100%=      5-min Rain = 0.02
KMCS 142020Z 33010KT 01/00 A3007 RMK A01 T00050004  RH  100%=      5-min Rain = 0.01
KMCS 142025Z 33010KT 01/01 A3007 RMK A01 T00060005  RH  100%=      5-min Rain = 0.02
KMCS 142030Z 33013KT 01/01 A3007 RMK A01 T00060005  RH  100%=      5-min Rain = 0.02
KMCS 142035Z 33012KT 01/00 A3006 RMK A01 T00060004  RH  100%=      5-min Rain = 0.02
KMCS 142040Z 33012KT 00/00 A3006 RMK A01 T00030002  RH  100%=      5-min Rain = 0.03
KMCS 142045Z 33011KT 00/00 A3006 RMK A01 T00030002  RH  100%=      5-min Rain = 0.02
KMCS 142050Z 33011G16KT 00/00 A3006 RMK A01 T00030001  RH  100%=      5-min Rain = 0.03
KMCS 142055Z 34012KT 00/00 A3006 RMK A01 T00040002  RH  100%=      5-min Rain = 0.02
KMCS 142100Z 34013KT 00/00 A3006 RMK A01 T00040002  RH  100%=      5-min Rain = 0.02
KMCS 142105Z 34013KT 01/00 A3006 RMK A01 T00050003  RH  100%=      5-min Rain = 0.01
KMCS 142110Z 34013KT 01/00 A3006 RMK A01 T00050004  RH  100%=      5-min Rain = 0
KMCS 142115Z 34013KT 01/00 A3006 RMK A01 T00060004  RH  100%=      5-min Rain = 0.02
KMCS 142120Z 34013KT 01/01 A3006 RMK A01 T00060005  RH  100%=      5-min Rain = 0.02
KMCS 142125Z 34013KT 01/01 A3006 RMK A01 T00070005  RH  100%=      5-min Rain = 0.02
KMCS 142130Z 34013KT 01/01 A3005 RMK A01 T00070005  RH  100%=      5-min Rain = 0.02
KMCS 142135Z 35014KT 01/01 A3005 RMK A01 T00070005  RH  100%=      5-min Rain = 0.01
KMCS 142140Z 35014KT 01/01 A3005 RMK A01 T00080006  RH  100%=      5-min Rain = 0.02
KMCS 142145Z 35015KT 01/01 A3005 RMK A01 T00080006  RH  100%=      5-min Rain = 0.01
KMCS 142150Z 35015KT 01/01 A3005 RMK A01 T00080007  RH  100%=      5-min Rain = 0.01
KMCS 142155Z 34015KT 01/01 A3005 RMK A01 T00080007  RH  100%=      5-min Rain = 0.01
KMCS 142200Z 34014G20KT 01/01 A3005 RMK A01 T00080007  RH  100%=      5-min Rain = 0.01
KMCS 142205Z 34015KT 01/01 A3004 RMK A01 T00090007  RH  100%=      5-min Rain = 0.01
KMCS 142210Z 34014KT 01/01 A3004 RMK A01 T00090007  RH  100%=      5-min Rain = 0.01
KMCS 142215Z 34015KT 01/01 A3004 RMK A01 T00090007  RH  100%=      5-min Rain = 0
KMCS 142220Z 34015KT 01/01 A3004 RMK A01 T00090008  RH  100%=      5-min Rain = 0.01
KMCS 142225Z 34016KT 01/01 A3004 RMK A01 T00100008  RH  100%=      5-min Rain = 0
KMCS 142230Z 34014G19KT 01/01 A3004 RMK A01 T00100008  RH  100%=      5-min Rain = 0.01
KMCS 142235Z 34013KT 01/01 A3004 RMK A01 T00100009  RH  100%=      5-min Rain = 0
KMCS 142240Z 35012KT 01/01 A3004 RMK A01 T00110009  RH  100%=      5-min Rain = 0.01
KMCS 142245Z 35012KT 01/01 A3004 RMK A01 T00110010  RH  100%=      5-min Rain = 0
KMCS 142250Z 35011KT 01/01 A3004 RMK A01 T00120010  RH  100%=      5-min Rain = 0.01
KMCS 142255Z 35012KT 01/01 A3004 RMK A01 T00120011  RH  100%=      5-min Rain = 0
KMCS 142300Z 35013KT 01/01 A3004 RMK A01 T00120011  RH  100%=      5-min Rain = 0
KMCS 142305Z 34014KT 01/01 A3004 RMK A01 T00120011  RH  100%=      5-min Rain = 0
KMCS 142310Z 34014KT 01/01 A3004 RMK A01 T00120011  RH  100%=      5-min Rain = 0
KMCS 142315Z 34013G18KT 01/01 A3004 RMK A01 T00120011  RH  100%=      5-min Rain = 0
KMCS 142320Z 34013KT 01/01 A3004 RMK A01 T00130011  RH  100%=      5-min Rain = 0
KMCS 142325Z 34013KT 01/01 A3005 RMK A01 T00140012  RH  100%=      5-min Rain = 0
KMCS 142330Z 34013KT 02/01 A3005 RMK A01 T00150013  RH  100%=      5-min Rain = 0
KMCS 142335Z 34013KT 02/02 A3005 RMK A01 T00170015  RH  100%=      5-min Rain = 0
KMCS 142340Z 34012KT 02/02 A3005 RMK A01 T00210019  RH  100%=      5-min Rain = 0
KMCS 142345Z 34012KT 02/02 A3005 RMK A01 T00230021  RH  100%=      5-min Rain = 0
KMCS 142350Z 34011KT 02/02 A3005 RMK A01 T00240023  RH  100%=      5-min Rain = 0
KMCS 142355Z 33011KT 03/02 A3005 RMK A01 T00250024  RH  100%=      5-min Rain = 0
KMCS 150000Z 34011KT 03/02 A3005 RMK A01 T00260022  RH  098%=      5-min Rain = 0
KMCS 150005Z 33011KT 03/01 A3005 RMK A01 T00260010  RH  090%=      5-min Rain = 0
KMCS 150010Z 33011KT 03/00 A3005 RMK A01 T00280004  RH  086%=      5-min Rain = 0
KMCS 150015Z 33011KT 03/00 A3006 RMK A01 T00280002  RH  084%=      5-min Rain = 0
KMCS 150020Z 33012KT 03/00 A3006 RMK A01 T00280001  RH  083%=      5-min Rain = 0
KMCS 150025Z 33011KT 03/00 A3006 RMK A01 T00280000  RH  083%=      5-min Rain = 0
KMCS 150030Z 33011KT 03/00 A3007 RMK A01 T002800-0  RH  082%=      5-min Rain = 0
KMCS 150035Z 33011KT 03/00 A3007 RMK A01 T002800-0  RH  083%=      5-min Rain = 0
KMCS 150040Z 33011KT 03/00 A3007 RMK A01 T002700-0  RH  083%=      5-min Rain = 0
KMCS 150045Z 33011KT 03/00 A3007 RMK A01 T002800-0  RH  082%=      5-min Rain = 0
KMCS 150050Z 33011KT 03/00 A3007 RMK A01 T002800-0  RH  082%=      5-min Rain = 0
KMCS 150055Z 33010KT 03/00 A3008 RMK A01 T00270000  RH  084%=      5-min Rain = 0
KMCS 150100Z 33010KT 03/00 A3008 RMK A01 T00250001  RH  085%=      5-min Rain = 0
KMCS 150105Z 33009KT 03/00 A3008 RMK A01 T00250001  RH  085%=      5-min Rain = 0
KMCS 150110Z 33009KT 03/00 A3008 RMK A01 T00250001  RH  085%=      5-min Rain = 0
KMCS 150115Z 33009KT 02/00 A3008 RMK A01 T00240001  RH  086%=      5-min Rain = 0
KMCS 150120Z 33009KT 03/00 A3008 RMK A01 T00250001  RH  085%=      5-min Rain = 0
KMCS 150125Z 33009KT 03/00 A3008 RMK A01 T00250001  RH  085%=      5-min Rain = 0
KMCS 150130Z 33009KT 02/00 A3008 RMK A01 T00240001  RH  085%=      5-min Rain = 0
KMCS 150135Z 33008KT 02/00 A3009 RMK A01 T00240001  RH  085%=      5-min Rain = 0
KMCS 150140Z 33009KT 02/00 A3009 RMK A01 T00230000  RH  086%=      5-min Rain = 0
KMCS 150145Z 33008KT 02/00 A3009 RMK A01 T002300-0  RH  085%=      5-min Rain = 0
KMCS 150150Z 33008KT 02/M00 A3009 RMK A01 T00231001  RH  085%=      5-min Rain = 0
KMCS 150155Z 33008KT 02/M00 A3009 RMK A01 T00241002  RH  084%=      5-min Rain = 0
KMCS 150200Z 32008KT 02/M00 A3009 RMK A01 T00221002  RH  085%=      5-min Rain = 0
KMCS 150205Z 32007KT 02/M00 A301 RMK A01 T00211001  RH  086%=      5-min Rain = 0
KMCS 150210Z 32007KT 02/M00 A301 RMK A01 T00191001  RH  087%=      5-min Rain = 0
KMCS 150215Z 32007KT 02/M00 A301 RMK A01 T00191002  RH  087%=      5-min Rain = 0
KMCS 150220Z 32007KT 02/M00 A301 RMK A01 T00201002  RH  087%=      5-min Rain = 0
KMCS 150225Z 32008KT 02/M00 A301 RMK A01 T00191003  RH  086%=      5-min Rain = 0
KMCS 150230Z 32008KT 02/M00 A301 RMK A01 T00171003  RH  087%=      5-min Rain = 0
KMCS 150235Z 32008KT 02/M00 A301 RMK A01 T00171003  RH  088%=      5-min Rain = 0
KMCS 150240Z 32008KT 02/M00 A301 RMK A01 T00161004  RH  087%=      5-min Rain = 0
KMCS 150245Z 32008KT 02/M01 A301 RMK A01 T00161005  RH  087%=      5-min Rain = 0
KMCS 150250Z 32008KT 02/M01 A3011 RMK A01 T00161006  RH  087%=      5-min Rain = 0
KMCS 150255Z 32008KT 02/M01 A3011 RMK A01 T00151006  RH  087%=      5-min Rain = 0
KMCS 150300Z 32008KT 01/M01 A3011 RMK A01 T00141007  RH  087%=      5-min Rain = 0
KMCS 150305Z 32008KT 01/M01 A3011 RMK A01 T00111007  RH  088%=      5-min Rain = 0
KMCS 150310Z 32008KT 01/M01 A3011 RMK A01 T00091008  RH  089%=      5-min Rain = 0
KMCS 150315Z 32008KT 01/M01 A3012 RMK A01 T00091008  RH  089%=      5-min Rain = 0
KMCS 150320Z 32008KT 01/M01 A3011 RMK A01 T00081009  RH  089%=      5-min Rain = 0
KMCS 150325Z 32008KT 01/M01 A3011 RMK A01 T00071010  RH  089%=      5-min Rain = 0
KMCS 150330Z 32008KT 01/M01 A3012 RMK A01 T00061011  RH  089%=      5-min Rain = 0
KMCS 150335Z 32008KT 01/M01 A3012 RMK A01 T00071011  RH  088%=      5-min Rain = 0
KMCS 150340Z 32008KT 01/M01 A3012 RMK A01 T00071012  RH  088%=      5-min Rain = 0
KMCS 150345Z 32008KT 01/M01 A3012 RMK A01 T00071013  RH  088%=      5-min Rain = 0
KMCS 150350Z 31008KT 01/M01 A3012 RMK A01 T00051014  RH  088%=      5-min Rain = 0
KMCS 150355Z 31007KT 00/M02 A3012 RMK A01 T00031015  RH  088%=      5-min Rain = 0
KMCS 150400Z 31007KT 00/M02 A3012 RMK A01 T00011016  RH  089%=      5-min Rain = 0
KMCS 150405Z 31007KT 00/M02 A3012 RMK A01 T00011017  RH  089%=      5-min Rain = 0
KMCS 150410Z 31007KT M00/M02 A3012 RMK A01 T10011018  RH  089%=      5-min Rain = 0
KMCS 150415Z 31007KT M00/M02 A3012 RMK A01 T10031020  RH  089%=      5-min Rain = 0
KMCS 150420Z 31007KT M01/M02 A3012 RMK A01 T10051021  RH  090%=      5-min Rain = 0
KMCS 150425Z 30007KT M00/M02 A3012 RMK A01 T10041021  RH  089%=      5-min Rain = 0
KMCS 150430Z 31007KT M01/M02 A3012 RMK A01 T10051021  RH  089%=      5-min Rain = 0
KMCS 150435Z 31007KT M00/M02 A3012 RMK A01 T10041021  RH  089%=      5-min Rain = 0
KMCS 150440Z 31007KT M00/M02 A3012 RMK A01 T10041021  RH  089%=      5-min Rain = 0
KMCS 150445Z 31008KT M00/M02 A3012 RMK A01 T10021021  RH  088%=      5-min Rain = 0
KMCS 150450Z 31008KT M00/M02 A3012 RMK A01 T10031022  RH  088%=      5-min Rain = 0
KMCS 150455Z 31008KT M01/M02 A3012 RMK A01 T10051023  RH  089%=      5-min Rain = 0
KMCS 150500Z 31008KT M01/M02 A3012 RMK A01 T10061023  RH  089%=      5-min Rain = 0
KMCS 150505Z 31008KT M01/M02 A3012 RMK A01 T10061024  RH  089%=      5-min Rain = 0
KMCS 150510Z 31008KT M01/M02 A3012 RMK A01 T10061024  RH  089%=      5-min Rain = 0
KMCS 150515Z 31007KT M01/M02 A3012 RMK A01 T10071024  RH  089%=      5-min Rain = 0
KMCS 150520Z 30007KT M01/M03 A3012 RMK A01 T10071025  RH  089%=      5-min Rain = 0
KMCS 150525Z 30007KT M01/M03 A3012 RMK A01 T10091027  RH  089%=      5-min Rain = 0
KMCS 150530Z 30007KT M01/M03 A3012 RMK A01 T10101027  RH  089%=      5-min Rain = 0
KMCS 150535Z 31008KT M01/M03 A3012 RMK A01 T10091026  RH  089%=      5-min Rain = 0
KMCS 150540Z 31008KT M01/M03 A3012 RMK A01 T10101027  RH  089%=      5-min Rain = 0
KMCS 150545Z 31008KT M01/M03 A3012 RMK A01 T10121029  RH  089%=      5-min Rain = 0
KMCS 150550Z 31008KT M01/M03 A3012 RMK A01 T10121029  RH  089%=      5-min Rain = 0
KMCS 150555Z 31008KT M01/M03 A3012 RMK A01 T10121029  RH  089%=      5-min Rain = 0

Page generated in 0.009 seconds.